Time;durP1;ratioP1;P1;durP2;ratioP2;P2;SDS_P1;SDS_P2;PMS_P1;PMS_P2;Temp;Humidity;BMP_temperature;BMP_pressure;BME280_temperature;BME280_humidity;BME280_pressure;Samples;Min_cycle;Max_cycle;Signal;HPM_P1;HPM_P2
2020/12/12 00:02:30;;;;;;;40.08;16.70;;;;;;;-2.81;94.10;99401.83;1754020;81;21502;-80
2020/12/12 00:04:57;;;;;;;38.85;17.02;;;;;;;-2.81;94.29;99403.99;1753528;81;20908;-79
2020/12/12 00:07:25;;;;;;;40.88;19.35;;;;;;;-2.81;94.19;99396.45;1753615;81;20948;-78
2020/12/12 00:09:53;;;;;;;44.50;18.23;;;;;;;-2.83;93.97;99397.22;1753566;81;21554;-76
2020/12/12 00:12:21;;;;;;;37.28;15.65;;;;;;;-2.81;94.38;99401.83;1753420;81;21018;-76
2020/12/12 00:14:48;;;;;;;43.55;17.82;;;;;;;-2.82;94.19;99400.20;1753575;81;20928;-75
2020/12/12 00:17:18;;;;;;;43.50;18.30;;;;;;;-2.82;94.22;99399.67;1753630;81;21806;-75
2020/12/12 00:19:48;;;;;;;39.33;17.40;;;;;;;-2.81;94.42;99410.71;1753591;81;21094;-76
2020/12/12 00:22:16;;;;;;;43.63;17.70;;;;;;;-2.79;94.43;99403.23;1753579;81;21472;-76
2020/12/12 00:24:44;;;;;;;42.93;18.27;;;;;;;-2.81;93.98;99403.99;1753532;81;20963;-75
2020/12/12 00:27:11;;;;;;;39.60;16.82;;;;;;;-2.84;94.04;99397.73;1753578;81;20964;-75
2020/12/12 00:29:39;;;;;;;40.55;17.73;;;;;;;-2.84;94.30;99403.11;1726147;81;21908;-76
2020/12/12 00:32:06;;;;;;;44.25;19.60;;;;;;;-2.84;94.34;99403.64;1753513;81;20963;-77
2020/12/12 00:34:34;;;;;;;40.92;17.80;;;;;;;-2.84;94.27;99408.48;1753565;81;23593;-77
2020/12/12 00:37:02;;;;;;;39.88;17.67;;;;;;;-2.84;94.25;99413.86;1753520;81;21015;-77
2020/12/12 00:39:29;;;;;;;39.83;18.32;;;;;;;-2.87;94.24;99408.95;1753560;81;21177;-77
2020/12/12 00:41:57;;;;;;;37.60;17.87;;;;;;;-2.89;94.24;99405.70;1753518;81;20936;-77
2020/12/12 00:44:26;;;;;;;45.78;18.85;;;;;;;-2.89;94.51;99408.39;1753593;81;21083;-76
2020/12/12 00:46:54;;;;;;;44.20;18.37;;;;;;;-2.89;94.55;99406.23;1753562;81;21368;-77
2020/12/12 00:49:22;;;;;;;43.00;17.62;;;;;;;-2.90;94.58;99404.07;1753547;81;21015;-77
2020/12/12 00:51:50;;;;;;;45.52;19.80;;;;;;;-2.91;94.71;99402.44;1753516;81;20956;-77
2020/12/12 00:54:18;;;;;;;43.45;17.95;;;;;;;-2.92;94.68;99409.38;1753539;81;20928;-78
2020/12/12 00:56:46;;;;;;;41.73;16.93;;;;;;;-2.93;94.78;99402.38;1753590;81;21044;-78
2020/12/12 00:59:13;;;;;;;38.75;18.37;;;;;;;-2.92;95.14;99386.02;1753593;81;21200;-77
2020/12/12 01:01:42;;;;;;;42.95;17.80;;;;;;;-2.90;95.04;99395.19;1753485;81;21031;-78
2020/12/12 01:04:09;;;;;;;47.33;19.37;;;;;;;-2.92;94.93;99394.61;1753649;81;21616;-78
2020/12/12 01:06:37;;;;;;;42.45;18.62;;;;;;;-2.93;95.15;99397.00;1753624;81;21062;-77
2020/12/12 01:09:04;;;;;;;45.52;16.97;;;;;;;-2.94;95.06;99394.02;1753537;81;20940;-77
2020/12/12 01:11:32;;;;;;;43.92;19.80;;;;;;;-2.97;94.94;99397.98;1753392;81;21322;-77
2020/12/12 01:14:00;;;;;;;48.80;19.92;;;;;;;-2.98;95.18;99400.91;1753475;81;21031;-76
2020/12/12 01:16:28;;;;;;;46.68;20.37;;;;;;;-2.96;95.52;99404.17;1753547;81;20932;-76
2020/12/12 01:18:55;;;;;;;47.03;18.45;;;;;;;-2.98;95.30;99407.09;1753525;81;21055;-77
2020/12/12 01:21:23;;;;;;;42.35;17.90;;;;;;;-2.98;95.37;99406.27;1753535;81;21043;-78
2020/12/12 01:23:50;;;;;;;41.88;17.95;;;;;;;-2.97;95.45;99403.36;1753541;81;21202;-79
2020/12/12 01:26:18;;;;;;;40.33;17.87;;;;;;;-2.99;95.29;99394.71;1753543;81;21082;-77
2020/12/12 01:28:45;;;;;;;42.25;18.10;;;;;;;-3.00;95.35;99393.08;1753515;81;21071;-77
2020/12/12 01:31:13;;;;;;;40.67;17.73;;;;;;;-3.00;95.49;99401.13;1753473;81;21150;-77
2020/12/12 01:33:40;;;;;;;53.28;19.80;;;;;;;-3.02;95.28;99396.52;1753545;81;21126;-77
2020/12/12 01:36:08;;;;;;;46.05;18.77;;;;;;;-3.02;95.47;99392.48;1753465;81;21378;-77
2020/12/12 01:38:35;;;;;;;44.27;18.85;;;;;;;-3.01;95.70;99394.13;1753563;81;21519;-77
2020/12/12 01:41:03;;;;;;;43.78;18.57;;;;;;;-3.00;95.57;99395.77;1753500;81;20999;-77
2020/12/12 01:43:31;;;;;;;48.33;18.52;;;;;;;-3.02;95.59;99391.97;1753471;81;21130;-76
2020/12/12 01:45:58;;;;;;;44.75;19.37;;;;;;;-3.00;95.77;99390.39;1753571;81;21063;-77
2020/12/12 01:48:26;;;;;;;50.38;18.32;;;;;;;-2.97;95.79;99395.83;1753505;81;21376;-76
2020/12/12 01:50:53;;;;;;;42.33;18.07;;;;;;;-2.96;95.64;99392.91;1753484;81;21154;-77
2020/12/12 01:53:25;;;;;;;48.42;18.82;;;;;;;-2.96;95.82;99388.88;1753592;81;21594;-77
2020/12/12 01:55:51;;;;;;;43.63;18.90;;;;;;;-2.94;95.81;99394.02;1753403;81;21043;-77
2020/12/12 01:58:18;;;;;;;44.95;18.92;;;;;;;-2.94;95.73;99384.62;1753694;81;21098;-78
2020/12/12 02:00:46;;;;;;;38.75;16.67;;;;;;;-2.92;95.74;99387.89;1753686;81;21386;-78
2020/12/12 02:03:14;;;;;;;42.00;17.77;;;;;;;-2.92;95.65;99382.52;1753593;81;21070;-80
2020/12/12 02:05:42;;;;;;;44.40;16.02;;;;;;;-2.94;95.46;99373.34;1753669;81;21097;-80
2020/12/12 02:08:15;;;;;;;41.90;18.40;;;;;;;-2.93;95.58;99373.64;1753666;81;21146;-79
2020/12/12 02:10:49;;;;;;;44.73;19.45;;;;;;;-2.94;95.49;99372.01;1761943;81;21105;-79
2020/12/12 02:13:18;;;;;;;46.83;19.30;;;;;;;-2.96;95.40;99371.42;1730295;83;22268;-77
2020/12/12 02:15:46;;;;;;;44.65;18.15;;;;;;;-2.94;95.59;99369.84;1730091;81;21542;-77
2020/12/12 02:18:19;;;;;;;36.77;16.67;;;;;;;-2.93;95.79;99362.90;1730199;83;20969;-77
2020/12/12 02:20:57;;;;;;;48.33;20.17;;;;;;;-2.93;95.66;99365.59;1730253;83;21048;-77
2020/12/12 02:23:25;;;;;;;39.40;17.48;;;;;;;-2.94;95.58;99362.61;1730330;83;21481;-77
2020/12/12 02:25:54;;;;;;;47.13;18.00;;;;;;;-2.93;95.66;99371.48;1730289;83;21803;-77
2020/12/12 02:28:29;;;;;;;40.98;18.27;;;;;;;-2.95;95.61;99363.66;1730087;83;20949;-77
2020/12/12 02:30:51;;;;;;;38.88;17.42;;;;;;;-2.94;95.69;99363.95;1747293;82;21035;-77
2020/12/12 02:33:19;;;;;;;39.73;18.05;;;;;;;-2.92;95.86;99363.19;1756552;81;21170;-78
2020/12/12 02:35:47;;;;;;;44.08;17.30;;;;;;;-2.91;95.72;99369.38;1756585;81;20976;-77
2020/12/12 02:38:14;;;;;;;48.13;19.65;;;;;;;-2.92;95.66;99369.91;1756593;81;21367;-77
2020/12/12 02:40:42;;;;;;;49.05;19.37;;;;;;;-2.88;96.14;99371.05;1756467;81;21138;-77
2020/12/12 02:43:12;;;;;;;43.00;19.15;;;;;;;-2.87;95.85;99374.03;1756534;81;21023;-76
2020/12/12 02:45:44;;;;;;;46.42;18.77;;;;;;;-2.87;95.76;99358.44;1756593;81;21023;-77
2020/12/12 02:48:13;;;;;;;53.23;20.30;;;;;;;-2.85;95.77;99374.61;1756772;81;21506;-77
2020/12/12 02:50:41;;;;;;;44.95;15.75;;;;;;;-2.84;95.51;99372.75;1756652;81;22267;-76
2020/12/12 02:53:09;;;;;;;47.08;18.40;;;;;;;-2.85;95.46;99370.58;1756515;81;20916;-76
2020/12/12 02:55:36;;;;;;;43.10;18.60;;;;;;;-2.83;95.77;99370.35;1756593;81;21109;-77
2020/12/12 02:58:04;;;;;;;47.95;19.20;;;;;;;-2.82;95.52;99371.46;1756616;81;21078;-77
2020/12/12 03:00:31;;;;;;;42.83;17.48;;;;;;;-2.81;95.36;99373.09;1756591;81;21019;-77
2020/12/12 03:02:59;;;;;;;44.80;17.48;;;;;;;-2.82;95.29;99376.84;1756512;81;21804;-76
2020/12/12 03:05:26;;;;;;;44.73;18.30;;;;;;;-2.81;95.17;99379.81;1756483;81;20952;-77
2020/12/12 03:07:54;;;;;;;38.10;17.32;;;;;;;-2.80;95.19;99370.70;1756514;81;21102;-77
2020/12/12 03:10:21;;;;;;;43.40;16.82;;;;;;;-2.77;95.35;99373.45;1756628;81;21503;-76
2020/12/12 03:12:49;;;;;;;41.92;17.40;;;;;;;-2.76;95.34;99373.22;1756436;81;21463;-76
2020/12/12 03:15:17;;;;;;;39.38;15.48;;;;;;;-2.76;95.19;99378.59;1756539;81;21442;-76
2020/12/12 03:17:44;;;;;;;39.18;15.20;;;;;;;-2.77;95.09;99376.95;1756484;81;21064;-77
2020/12/12 03:20:12;;;;;;;32.33;14.25;;;;;;;-2.74;95.23;99367.09;1756610;81;21554;-76
2020/12/12 03:22:39;;;;;;;34.67;14.87;;;;;;;-2.75;95.02;99376.72;1756499;81;21040;-78
2020/12/12 03:25:07;;;;;;;36.05;14.47;;;;;;;-2.75;95.12;99377.54;1756535;81;21058;-78
2020/12/12 03:27:34;;;;;;;30.65;14.40;;;;;;;-2.75;95.11;99373.52;1756561;81;21348;-79
2020/12/12 03:30:03;;;;;;;33.70;14.58;;;;;;;-2.74;94.99;99376.48;1756497;81;20995;-78
2020/12/12 03:32:32;;;;;;;33.73;13.72;;;;;;;-2.75;95.02;99371.34;1756463;81;21121;-79
2020/12/12 03:35:00;;;;;;;35.25;15.05;;;;;;;-2.73;94.98;99379.99;1756529;81;21153;-76
2020/12/12 03:37:28;;;;;;;34.60;15.30;;;;;;;-2.75;94.70;99374.03;1756574;81;21098;-78
2020/12/12 03:39:55;;;;;;;35.78;15.72;;;;;;;-2.77;94.62;99385.02;1756559;81;21152;-77
2020/12/12 03:42:23;;;;;;;33.48;14.10;;;;;;;-2.79;94.71;99375.03;1756505;81;21019;-77
2020/12/12 03:44:50;;;;;;;30.43;13.65;;;;;;;-2.79;94.70;99377.71;1756533;81;21149;-77
2020/12/12 03:47:18;;;;;;;32.33;14.83;;;;;;;-2.79;94.59;99373.69;1756489;81;20948;-77
2020/12/12 03:49:45;;;;;;;35.65;14.55;;;;;;;-2.78;94.66;99373.97;1756566;81;21152;-77
2020/12/12 03:52:15;;;;;;;31.97;13.88;;;;;;;-2.79;94.54;99372.87;1756614;81;21541;-79
2020/12/12 03:54:42;;;;;;;32.88;14.13;;;;;;;-2.82;94.30;99373.33;1751805;81;20996;-79
2020/12/12 03:57:10;;;;;;;34.33;15.45;;;;;;;-2.84;94.48;99368.72;1755998;81;21032;-79
2020/12/12 03:59:37;;;;;;;31.65;13.38;;;;;;;-2.85;94.54;99359.02;1755983;81;20932;-79
2020/12/12 04:02:05;;;;;;;33.55;14.18;;;;;;;-2.88;94.30;99357.62;1736664;80;21071;-77
2020/12/12 04:04:32;;;;;;;34.78;15.20;;;;;;;-2.89;94.83;99361.38;1755984;81;21379;-77
2020/12/12 04:06:59;;;;;;;37.10;15.28;;;;;;;-2.89;94.53;99357.36;1755908;81;21599;-78
2020/12/12 04:09:28;;;;;;;29.40;14.10;;;;;;;-2.91;94.49;99350.58;1755965;81;20933;-77
2020/12/12 04:11:55;;;;;;;39.25;14.70;;;;;;;-2.91;94.45;99348.71;1755784;81;21162;-78
2020/12/12 04:14:23;;;;;;;41.13;15.40;;;;;;;-2.93;94.45;99348.66;1756087;81;20997;-76
2020/12/12 04:16:50;;;;;;;41.83;14.45;;;;;;;-2.96;94.27;99355.83;1755995;81;21342;-78
2020/12/12 04:19:18;;;;;;;44.20;16.50;;;;;;;-2.97;94.45;99355.02;1755917;81;20902;-78
2020/12/12 04:21:45;;;;;;;37.30;16.50;;;;;;;-2.99;94.43;99347.71;1755954;81;21091;-77
2020/12/12 04:24:13;;;;;;;40.12;16.73;;;;;;;-2.97;94.52;99347.48;1755931;81;20989;-76
2020/12/12 04:26:41;;;;;;;39.00;15.20;;;;;;;-2.98;94.53;99346.66;1755959;81;21135;-75
2020/12/12 04:29:08;;;;;;;34.55;16.02;;;;;;;-2.99;94.54;99341.00;1755883;80;21387;-75
2020/12/12 04:31:36;;;;;;;33.60;15.55;;;;;;;-2.98;94.40;99347.19;1750871;80;21472;-79
2020/12/12 04:34:05;;;;;;;34.40;14.78;;;;;;;-3.00;94.38;99337.49;1755597;81;21080;-78
2020/12/12 04:36:33;;;;;;;35.75;15.25;;;;;;;-3.01;94.41;99334.52;1755940;81;20949;-82
2020/12/12 04:39:01;;;;;;;30.08;12.80;;;;;;;-3.02;94.17;99340.12;1755975;81;21138;-83
2020/12/12 04:41:29;;;;;;;35.88;15.30;;;;;;;-3.03;94.02;99342.52;1756109;81;22325;-82
2020/12/12 04:43:57;;;;;;;37.40;15.40;;;;;;;-3.06;94.04;99338.42;1755912;81;21012;-81
2020/12/12 04:46:24;;;;;;;34.33;16.00;;;;;;;-3.07;94.00;99344.02;1755931;81;20921;-82
2020/12/12 04:48:52;;;;;;;29.60;15.00;;;;;;;-3.08;94.03;99341.05;1728759;81;20988;-82
2020/12/12 04:51:19;;;;;;;34.33;14.47;;;;;;;-3.07;94.30;99338.13;1728765;81;21051;-83
2020/12/12 04:53:47;;;;;;;35.00;15.03;;;;;;;-3.06;94.04;99341.63;1756116;81;22263;-82
2020/12/12 04:56:21;;;;;;;35.50;15.25;;;;;;;-3.10;93.65;99341.28;1755862;81;21072;-85
2020/12/12 04:58:50;;;;;;;47.35;17.62;;;;;;;-3.13;93.73;99332.87;1756448;81;21487;-82
2020/12/12 05:01:18;;;;;;;37.28;16.15;;;;;;;-3.14;93.78;99331.23;1748915;80;20943;-83
2020/12/12 05:03:47;;;;;;;42.88;15.38;;;;;;;-3.15;93.74;99325.56;1744621;81;21072;-73
2020/12/12 05:06:14;;;;;;;32.42;13.83;;;;;;;-3.16;93.67;99327.95;1755941;81;21382;-72
2020/12/12 05:08:42;;;;;;;37.55;16.48;;;;;;;-3.18;93.55;99328.19;1755831;81;20941;-78
2020/12/12 05:11:11;;;;;;;35.20;16.05;;;;;;;-3.18;93.46;99334.09;1755896;81;21014;-74
2020/12/12 05:13:38;;;;;;;36.03;15.55;;;;;;;-3.20;93.42;99332.16;1754909;81;21094;-76
2020/12/12 05:16:06;;;;;;;34.35;13.60;;;;;;;-3.22;93.39;99339.63;1750412;81;21056;-76
2020/12/12 05:18:34;;;;;;;27.93;12.93;;;;;;;-3.25;93.09;99329.34;1738004;81;21136;-76
2020/12/12 05:21:01;;;;;;;33.67;13.15;;;;;;;-3.26;93.19;99325.84;1751089;81;21559;-79
2020/12/12 05:23:29;;;;;;;25.52;11.93;;;;;;;-3.26;93.17;99330.39;1758370;81;21018;-77
2020/12/12 05:25:57;;;;;;;23.67;10.05;;;;;;;-3.28;92.84;99336.00;1758368;81;21041;-78
2020/12/12 05:28:25;;;;;;;23.10;10.80;;;;;;;-3.29;92.61;99325.48;1758484;81;21473;-77
2020/12/12 05:30:53;;;;;;;26.55;10.78;;;;;;;-3.32;92.08;99340.19;1758461;81;21377;-77
2020/12/12 05:33:23;;;;;;;25.57;11.50;;;;;;;-3.35;92.16;99341.99;1758522;81;21583;-77
2020/12/12 05:35:52;;;;;;;25.72;11.53;;;;;;;-3.37;92.23;99340.88;1758535;81;21572;-80
2020/12/12 05:38:19;;;;;;;24.43;11.20;;;;;;;-3.38;92.33;99341.92;1758581;81;22013;-77
2020/12/12 05:40:53;;;;;;;25.60;11.28;;;;;;;-3.40;92.16;99344.02;1758535;81;20942;-81
2020/12/12 05:43:20;;;;;;;32.48;12.53;;;;;;;-3.43;92.18;99345.82;1734135;81;21261;-82
2020/12/12 05:45:47;;;;;;;30.97;12.75;;;;;;;-3.43;92.38;99339.11;1708319;80;21222;-80
2020/12/12 05:48:15;;;;;;;29.15;12.43;;;;;;;-3.42;92.44;99343.95;1742195;81;20944;-79
2020/12/12 05:50:42;;;;;;;28.32;10.65;;;;;;;-3.43;92.37;99349.84;1724106;83;21086;-79
2020/12/12 05:53:10;;;;;;;31.45;11.50;;;;;;;-3.44;92.28;99352.23;1724003;82;21202;-78
2020/12/12 05:55:38;;;;;;;23.10;10.50;;;;;;;-3.46;92.02;99352.17;1701544;83;22091;-76
2020/12/12 05:58:06;;;;;;;27.00;9.98;;;;;;;-3.48;91.89;99356.98;1724125;83;20960;-76
2020/12/12 06:00:34;;;;;;;24.67;11.43;;;;;;;-3.47;92.80;99354.07;1726251;82;21555;-78
2020/12/12 06:03:23;;;;;;;28.47;11.20;;;;;;;-3.47;92.00;99356.75;1726032;83;21179;-79
2020/12/12 06:05:51;;;;;;;27.82;11.63;;;;;;;-3.51;91.58;99360.94;1706904;84;21575;-78
2020/12/12 06:08:27;;;;;;;24.90;11.08;;;;;;;-3.52;91.88;99359.30;1684437;84;21903;-77
2020/12/12 06:10:55;;;;;;;33.53;13.20;;;;;;;-3.54;91.66;99358.72;1707657;83;20937;-78
2020/12/12 06:13:23;;;;;;;29.10;12.65;;;;;;;-3.57;91.69;99356.48;1694339;83;20996;-78
2020/12/12 06:15:51;;;;;;;28.87;13.03;;;;;;;-3.56;92.29;99362.67;1711828;83;21145;-77
2020/12/12 06:18:56;;;;;;;33.28;11.63;;;;;;;-3.56;92.10;99366.17;1665459;83;21070;-78
2020/12/12 06:21:24;;;;;;;31.35;12.88;;;;;;;-3.58;91.99;99370.95;1711854;83;21173;-79
2020/12/12 06:23:52;;;;;;;33.53;12.90;;;;;;;-3.56;92.45;99370.20;1722417;83;21012;-75
2020/12/12 06:26:24;;;;;;;36.05;14.60;;;;;;;-3.56;91.95;99370.20;1698896;83;21616;-72
2020/12/12 06:28:52;;;;;;;29.05;11.63;;;;;;;-3.59;91.63;99369.31;1723106;83;21130;-78
2020/12/12 06:31:19;;;;;;;30.45;10.63;;;;;;;-3.62;91.88;99375.66;1722838;83;21070;-75
2020/12/12 06:33:54;;;;;;;28.42;11.53;;;;;;;-3.68;91.26;99371.50;1673321;83;22273;-77
2020/12/12 06:36:33;;;;;;;24.85;10.65;;;;;;;-3.70;91.42;99371.42;1722878;83;21689;-81
2020/12/12 06:39:24;;;;;;;30.02;11.55;;;;;;;-3.73;91.55;99368.67;1722931;83;21023;-79
2020/12/12 06:41:56;;;;;;;24.35;10.63;;;;;;;-3.73;91.52;99369.20;1722807;83;21027;-78
2020/12/12 06:44:37;;;;;;;;;;;;;;;-3.77;91.28;99359.97;1725508;82;21554;-81
2020/12/12 06:47:06;;;;;;;38.73;14.20;;;;;;;-3.78;91.81;99364.52;1723154;83;21188;-78
2020/12/12 06:49:35;;;;;;;66.97;17.95;;;;;;;-3.80;91.37;99359.08;1722799;82;21004;-77
2020/12/12 06:52:03;;;;;;;36.03;12.33;;;;;;;-3.82;91.46;99359.31;1722707;83;21023;-76
2020/12/12 06:54:30;;;;;;;32.53;12.50;;;;;;;-3.82;91.71;99353.13;1722872;83;21157;-77
2020/12/12 06:56:58;;;;;;;33.45;11.85;;;;;;;-3.80;91.64;99353.72;1722803;83;21506;-78
2020/12/12 06:59:35;;;;;;;37.73;13.15;;;;;;;-3.83;91.09;99359.01;1722902;83;21440;-80
2020/12/12 07:02:06;;;;;;;33.70;12.78;;;;;;;-3.84;91.37;99350.67;1722861;83;21031;-77
2020/12/12 07:04:36;;;;;;;27.25;11.33;;;;;;;-3.85;91.05;99369.67;1723164;82;21582;-82
2020/12/12 07:07:07;;;;;;;29.32;12.35;;;;;;;-3.88;90.86;99354.03;1722865;83;21150;-80
2020/12/12 07:09:35;;;;;;;28.67;12.58;;;;;;;-3.90;90.89;99357.46;1723083;83;21067;-77
2020/12/12 07:12:03;;;;;;;30.12;11.80;;;;;;;-3.91;90.86;99362.00;1722861;83;21197;-77
2020/12/12 07:14:30;;;;;;;39.13;11.88;;;;;;;-3.93;91.07;99357.91;1725286;83;21173;-81
2020/12/12 07:17:00;;;;;;;33.38;12.18;;;;;;;-3.91;91.61;99351.80;1725963;83;21098;-76
2020/12/12 07:19:39;;;;;;;34.40;13.72;;;;;;;-3.89;91.53;99353.73;1752406;80;21079;-70
2020/12/12 07:22:09;;;;;;;36.88;13.80;;;;;;;-3.89;91.36;99354.55;1749182;81;21099;-71
2020/12/12 07:24:41;;;;;;;33.30;12.82;;;;;;;-3.87;91.75;99352.46;1725970;83;21152;-72
2020/12/12 07:27:09;;;;;;;29.50;12.65;;;;;;;-3.81;91.95;99352.90;1726075;82;20952;-72
2020/12/12 07:29:37;;;;;;;37.05;14.38;;;;;;;-3.79;91.79;99356.17;1753870;81;21051;-72
2020/12/12 07:32:05;;;;;;;23.77;10.88;;;;;;;-3.77;92.05;99355.95;1759260;80;21464;-76
2020/12/12 07:34:32;;;;;;;33.92;14.13;;;;;;;-3.76;91.67;99353.03;1759299;81;21538;-75
2020/12/12 07:37:02;;;;;;;33.15;12.45;;;;;;;-3.78;91.35;99351.63;1759253;80;21106;-76
2020/12/12 07:39:32;;;;;;;31.48;12.13;;;;;;;-3.79;91.17;99352.15;1759241;81;21059;-76
2020/12/12 07:42:02;;;;;;;35.20;13.35;;;;;;;-3.78;91.36;99352.97;1759245;81;21162;-76
2020/12/12 07:44:32;;;;;;;33.10;13.13;;;;;;;-3.79;91.17;99356.17;1759405;81;21162;-77
2020/12/12 07:47:06;;;;;;;32.42;14.45;;;;;;;-3.78;91.23;99354.31;1759221;81;21052;-75
2020/12/12 07:49:36;;;;;;;32.88;13.18;;;;;;;-3.79;91.06;99349.98;1759276;81;21464;-76
2020/12/12 07:52:12;;;;;;;28.10;12.55;;;;;;;-3.79;91.04;99356.70;1759140;81;21591;-74
2020/12/12 07:57:34;;;;;;;40.05;16.52;;;;;;;-3.70;91.03;99346.77;1890141;76;22459;-76
2020/12/12 08:00:09;;;;;;;44.65;17.27;;;;;;;-3.75;90.66;99350.65;1853028;77;21478;-68
2020/12/12 08:02:40;;;;;;;38.60;14.63;;;;;;;-3.74;91.19;99347.44;1827396;78;21354;-72
2020/12/12 08:05:09;;;;;;;40.50;16.07;;;;;;;-3.72;91.23;99348.85;1828053;77;20919;-73
2020/12/12 08:07:36;;;;;;;30.23;11.75;;;;;;;-3.71;90.84;99339.76;1861056;77;20959;-71
2020/12/12 08:10:06;;;;;;;28.07;12.13;;;;;;;-3.69;91.15;99344.89;1855903;77;20999;-73
2020/12/12 08:12:36;;;;;;;34.53;13.43;;;;;;;-3.68;90.95;99347.88;1801537;77;21034;-70
2020/12/12 08:15:16;;;;;;;22.13;10.08;;;;;;;-3.70;90.46;99349.97;1861253;77;21532;-81
2020/12/12 08:17:41;;;;;;;28.62;12.23;;;;;;;-3.71;90.57;99357.20;1853347;76;20963;-69
2020/12/12 08:20:17;;;;;;;24.23;10.70;;;;;;;-3.74;90.16;99350.12;1851297;77;20919;-69
2020/12/12 08:22:44;;;;;;;25.88;10.95;;;;;;;-3.76;90.13;99352.22;1827313;78;20904;-69
2020/12/12 08:25:13;;;;;;;27.90;12.25;;;;;;;-3.75;90.52;99353.33;1831201;77;20959;-70
2020/12/12 08:27:41;;;;;;;29.32;12.35;;;;;;;-3.68;91.10;99347.88;1861101;77;23523;-69
2020/12/12 08:30:09;;;;;;;27.32;12.37;;;;;;;-3.66;90.87;99346.59;1860973;77;20915;-69
2020/12/12 08:32:43;;;;;;;24.50;11.60;;;;;;;-3.65;90.78;99344.73;1843524;77;21123;-70
2020/12/12 08:35:27;;;;;;;23.15;12.13;;;;;;;-3.63;90.81;99342.64;1826816;78;21488;-71
2020/12/12 08:38:08;;;;;;;23.42;11.10;;;;;;;-3.63;90.17;99337.80;1827316;78;20981;-71
2020/12/12 08:40:45;;;;;;;31.70;11.53;;;;;;;-3.65;90.46;99335.34;1827316;78;21188;-68
2020/12/12 08:43:14;;;;;;;25.48;11.22;;;;;;;-3.61;90.76;99339.20;1827207;78;20934;-69
2020/12/12 08:45:46;;;;;;;24.25;11.85;;;;;;;-3.58;90.30;99332.05;1827368;78;20921;-69
2020/12/12 08:48:14;;;;;;;;;;;;;;;-3.60;90.15;99320.72;1826131;78;21037;-68
2020/12/12 08:50:53;;;;;;;26.82;11.65;;;;;;;-3.59;90.40;99322.36;1827325;78;20160;-68
2020/12/12 08:53:35;;;;;;;23.40;10.75;;;;;;;-3.59;89.83;99322.88;1827413;78;22238;-68
2020/12/12 08:56:15;;;;;;;29.05;12.95;;;;;;;-3.62;89.79;99312.08;1824758;78;21612;-68
2020/12/12 08:58:57;;;;;;;42.50;13.22;;;;;;;-3.60;90.00;99299.78;1818602;79;21591;-67
2020/12/12 09:01:33;;;;;;;63.58;15.78;;;;;;;-3.60;89.53;99293.08;1818824;79;21560;-70
2020/12/12 09:04:14;;;;;;;34.98;12.70;;;;;;;-3.58;90.04;99297.16;1818688;79;20883;-70
2020/12/12 09:06:54;;;;;;;71.72;18.07;;;;;;;-3.52;90.10;99285.51;1818672;79;22119;-71
2020/12/12 09:09:27;;;;;;;58.80;17.05;;;;;;;-3.50;89.86;99294.14;1818082;79;21053;-72
2020/12/12 09:12:03;;;;;;;31.50;11.90;;;;;;;-3.47;89.88;99290.19;1789311;79;21556;-71
2020/12/12 09:14:33;;;;;;;31.23;12.47;;;;;;;-3.48;89.84;99293.39;1817978;78;20927;-72
2020/12/12 09:17:09;;;;;;;34.35;12.13;;;;;;;-3.49;89.86;99285.05;1818031;79;20934;-71
2020/12/12 09:19:39;;;;;;;29.30;11.95;;;;;;;-3.48;90.00;99284.00;1818126;78;21363;-70
2020/12/12 09:22:09;;;;;;;30.82;11.33;;;;;;;-3.47;90.28;99276.24;1817998;79;20978;-70
2020/12/12 09:24:37;;;;;;;26.77;11.68;;;;;;;-3.47;89.36;99274.08;1817992;79;21144;-71
2020/12/12 09:27:04;;;;;;;30.77;11.48;;;;;;;-3.47;89.65;99275.42;1790250;79;21120;-70
2020/12/12 09:29:33;;;;;;;28.75;11.20;;;;;;;-3.44;89.74;99269.56;1775652;80;21057;-72
2020/12/12 09:32:00;;;;;;;24.63;10.28;;;;;;;-3.46;88.74;99272.48;1775564;80;21216;-70
2020/12/12 09:34:28;;;;;;;27.22;11.90;;;;;;;-3.48;89.15;99265.73;1775626;80;21097;-69
2020/12/12 09:36:56;;;;;;;21.42;9.93;;;;;;;-3.44;89.88;99256.14;1782699;80;20983;-72
2020/12/12 09:39:24;;;;;;;26.23;12.10;;;;;;;-3.41;89.71;99261.87;1782908;79;21768;-69
2020/12/12 09:42:00;;;;;;;24.57;11.05;;;;;;;-3.37;89.70;99259.54;1791095;79;21533;-71
2020/12/12 09:44:29;;;;;;;28.15;11.00;;;;;;;-3.35;89.82;99263.63;1792745;79;21388;-70
2020/12/12 09:46:56;;;;;;;32.75;11.97;;;;;;;-3.33;89.75;99256.16;1794933;78;20994;-70
2020/12/12 09:49:24;;;;;;;23.47;11.03;;;;;;;-3.29;89.63;99239.59;1774572;79;21597;-72
2020/12/12 09:51:52;;;;;;;25.48;12.40;;;;;;;-3.27;90.02;99251.72;1779975;79;20965;-74
2020/12/12 09:54:19;;;;;;;27.52;11.88;;;;;;;-3.23;89.65;99250.20;1787381;79;21157;-70
2020/12/12 09:56:48;;;;;;;23.47;11.20;;;;;;;-3.22;89.51;99247.00;1803758;77;21241;-69
2020/12/12 09:59:17;;;;;;;26.05;12.45;;;;;;;-3.18;90.05;99250.86;1784527;78;21191;-72
2020/12/12 10:01:47;;;;;;;23.30;10.53;;;;;;;-3.14;89.83;99250.67;1791604;80;21009;-70
2020/12/12 10:04:15;;;;;;;21.15;9.60;;;;;;;-3.16;89.71;99245.54;1797494;78;21073;-75
2020/12/12 10:06:44;;;;;;;23.73;10.82;;;;;;;-3.15;89.78;99246.36;1817938;78;21081;-70
2020/12/12 10:09:11;;;;;;;26.60;11.73;;;;;;;-3.18;89.43;99230.72;1824777;78;21404;-69
2020/12/12 10:11:39;;;;;;;22.60;10.38;;;;;;;-3.20;89.58;99234.16;1824773;78;21195;-70
2020/12/12 10:14:07;;;;;;;23.50;10.63;;;;;;;-3.20;89.80;99224.77;1826339;78;20934;-68
2020/12/12 10:16:36;;;;;;;27.70;12.15;;;;;;;-3.19;89.91;99219.16;1826558;78;21004;-67
2020/12/12 10:19:04;;;;;;;36.58;12.80;;;;;;;-3.20;89.99;99221.55;1826519;78;21037;-68
2020/12/12 10:21:32;;;;;;;26.02;10.55;;;;;;;-3.20;90.03;99220.73;1826614;78;21453;-75
2020/12/12 10:24:00;;;;;;;25.62;10.55;;;;;;;-3.23;90.10;99217.99;1826050;78;21899;-72
2020/12/12 10:26:30;;;;;;;33.70;12.03;;;;;;;-3.25;90.18;99212.56;1826041;78;20931;-72
2020/12/12 10:28:58;;;;;;;25.32;10.88;;;;;;;-3.28;90.33;99227.27;1826632;78;21006;-71
2020/12/12 10:31:25;;;;;;;24.87;10.28;;;;;;;-3.30;90.31;99228.03;1826591;77;21592;-72
2020/12/12 10:33:54;;;;;;;26.27;10.53;;;;;;;-3.33;90.54;99230.66;1826588;78;21288;-72
2020/12/12 10:36:24;;;;;;;23.42;10.40;;;;;;;-3.31;90.85;99239.82;1825299;78;21058;-72
2020/12/12 10:38:52;;;;;;;25.37;9.80;;;;;;;-3.29;91.08;99240.41;1826678;78;20939;-73
2020/12/12 10:41:20;;;;;;;23.55;9.90;;;;;;;-3.30;91.02;99240.64;1826606;78;20947;-73
2020/12/12 10:43:49;;;;;;;33.60;11.53;;;;;;;-3.32;90.83;99240.87;1826619;78;20936;-71
2020/12/12 10:46:17;;;;;;;26.20;11.40;;;;;;;-3.36;91.06;99231.13;1826554;78;21223;-72
2020/12/12 10:48:45;;;;;;;27.55;10.40;;;;;;;-3.34;91.42;99223.66;1826491;78;20998;-72
2020/12/12 10:51:18;;;;;;;25.90;10.72;;;;;;;-3.33;91.59;99219.92;1826581;78;21479;-72
2020/12/12 10:53:49;;;;;;;25.80;11.63;;;;;;;-3.29;91.95;99214.08;1826600;78;20987;-71
2020/12/12 10:56:17;;;;;;;35.00;13.28;;;;;;;-3.26;91.79;99214.96;1826759;78;21514;-71
2020/12/12 10:58:44;;;;;;;30.82;12.73;;;;;;;-3.24;92.24;99202.94;1829770;78;21402;-70
2020/12/12 11:01:12;;;;;;;32.25;13.93;;;;;;;-3.21;92.19;99202.47;1829737;78;20927;-70
2020/12/12 11:03:42;;;;;;;32.55;15.18;;;;;;;-3.25;91.59;99212.05;1829761;78;20939;-72
2020/12/12 11:06:13;;;;;;;30.72;12.40;;;;;;;-3.28;91.50;99219.75;1829755;78;20924;-72
2020/12/12 11:08:40;;;;;;;34.98;14.68;;;;;;;-3.30;91.75;99212.45;1829952;78;21484;-73
2020/12/12 11:11:09;;;;;;;34.40;14.50;;;;;;;-3.33;91.62;99203.00;1829871;78;22255;-73
2020/12/12 11:13:38;;;;;;;34.80;13.68;;;;;;;-3.32;91.75;99201.95;1826591;78;21517;-73
2020/12/12 11:16:08;;;;;;;35.60;13.58;;;;;;;-3.34;91.66;99198.67;1826500;78;21010;-72
2020/12/12 11:18:36;;;;;;;33.28;15.30;;;;;;;-3.32;92.00;99201.95;1829733;78;21003;-72
2020/12/12 11:21:03;;;;;;;37.17;16.07;;;;;;;-3.29;92.04;99201.48;1829772;78;21034;-72
2020/12/12 11:23:31;;;;;;;40.30;15.40;;;;;;;-3.28;92.04;99209.83;1829728;78;21368;-72
2020/12/12 11:25:59;;;;;;;31.45;12.98;;;;;;;-3.29;91.93;99208.72;1829673;78;20999;-73
2020/12/12 11:28:27;;;;;;;38.42;14.50;;;;;;;-3.31;92.53;99206.27;1829864;78;21554;-72
2020/12/12 11:30:57;;;;;;;29.63;12.53;;;;;;;-3.30;92.48;99207.08;1828555;78;20959;-71